Terminal Aerodrome Forecast
Issued by NWS

Home | Current Version | Previous Version | Text Only | Print | Product List | Glossary On
Versions: 1 2 3 4 5 6 7 8 9 10 11 12 13 14 15 16 17 18 19 20 21 22 23 24 25 26 27 28
000
FTAK31 PAFA 241928 AAB
TAFAFA
TAF AMD
PAFA 241928Z 2419/2524 VRB04KT 5SM -RA BR FEW008 BKN020 OVC035
      TEMPO 2419/2422 2SM -RA BR SCT008 BKN016
     FM250600 23005KT P6SM -SHRA SCT005 BKN030
     FM251400 25007KT P6SM -SHRA SCT005 OVC015=

USA.gov is the U.S. government's official web portal to all federal, state and local government web resources and services.